KAXV/AXV METAR and TAF weather

Enter ICAO airport designator
Station Type Date Time Source
KAXV METAR 2019/06/18 12:56 UTC NOAA

KAXV 181256Z AUTO 12003KT 7SM SCT004 SCT050 SCT070 18/18 A2996 RMK AO2


Station Type Date Time Source
KAXV Decoded METAR 2019/06/18 12:56 UTC NOAA

Station name not available
Jun 18, 2019 - 08:56 AM EDT / 2019.06.18 1256 UTC
Wind: from the ESE (120 degrees) at 3 MPH (3 KT):0
Visibility: 7 mile(s):0
Sky conditions: partly cloudy
Temperature: 64 F (18 C)
Dew Point: 64 F (18 C)
Relative Humidity: 100%
Pressure (altimeter): 29.96 in. Hg (1014 hPa)
ob: KAXV 181256Z AUTO 12003KT 7SM SCT004 SCT050 SCT070 18/18 A2996 RMK AO2
cycle: 13

Station Type Date Time Source
KAXV TAF UTC NOAA

Error!

Example: see airport list